Time;durP1;ratioP1;P1;durP2;ratioP2;P2;SDS_P1;SDS_P2;PMS_P1;PMS_P2;Temp;Humidity;BMP_temperature;BMP_pressure;BME280_temperature;BME280_humidity;BME280_pressure;Samples;Min_cycle;Max_cycle;Signal;HPM_P1;HPM_P2
2023/03/30 00:01:23;;;;;;;21.50;16.73;;;9.40;99.90;;;;;;5010731;28;20267;-58
2023/03/30 00:03:50;;;;;;;20.70;16.23;;;9.40;99.90;;;;;;4989319;28;20308;-60
2023/03/30 00:06:20;;;;;;;25.67;18.13;;;9.40;99.90;;;;;;5014966;28;20192;-56
2023/03/30 00:08:52;;;;;;;22.77;17.23;;;9.40;99.90;;;;;;5010169;28;20220;-60
2023/03/30 00:11:21;;;;;;;22.67;17.13;;;9.40;99.90;;;;;;5013981;28;20239;-55
2023/03/30 00:13:50;;;;;;;22.77;17.10;;;9.40;99.90;;;;;;4995728;28;20205;-59
2023/03/30 00:16:18;;;;;;;21.40;16.70;;;9.40;99.90;;;;;;5006638;28;20196;-58
2023/03/30 00:18:46;;;;;;;23.33;17.73;;;9.40;99.90;;;;;;5002286;28;21046;-56
2023/03/30 00:21:16;;;;;;;21.90;17.30;;;9.40;99.90;;;;;;5002526;28;20204;-59
2023/03/30 00:23:46;;;;;;;23.27;17.33;;;9.40;99.90;;;;;;5017310;28;20281;-55
2023/03/30 00:26:36;;;;;;;23.23;15.57;;;9.40;99.90;;;;;;5005620;28;20214;-57
2023/03/30 00:29:04;;;;;;;21.97;17.10;;;9.40;99.90;;;;;;5001185;28;20228;-57
2023/03/30 00:31:31;;;;;;;20.40;17.20;;;9.40;99.90;;;;;;5010155;28;20200;-60
2023/03/30 00:33:58;;;;;;;22.03;17.30;;;9.40;99.90;;;;;;5010047;28;20220;-59
2023/03/30 00:36:25;;;;;;;24.93;16.60;;;9.40;99.90;;;;;;4998521;28;20284;-60
2023/03/30 00:38:53;;;;;;;20.97;15.93;;;9.40;99.90;;;;;;5013849;28;20243;-57
2023/03/30 00:41:20;;;;;;;22.17;16.90;;;9.40;99.90;;;;;;5007777;28;20200;-60
2023/03/30 00:43:59;;;;;;;19.13;15.97;;;9.40;99.90;;;;;;5010981;28;20201;-57
2023/03/30 00:46:27;;;;;;;23.07;17.00;;;9.50;99.90;;;;;;5008959;28;20199;-57
2023/03/30 00:48:56;;;;;;;24.67;15.90;;;9.40;99.90;;;;;;5011136;28;20243;-56
2023/03/30 00:51:25;;;;;;;20.90;16.03;;;9.50;99.90;;;;;;4987017;28;20203;-60
2023/03/30 00:53:56;;;;;;;19.33;16.20;;;9.50;99.90;;;;;;5004132;28;20212;-55
2023/03/30 00:56:28;;;;;;;19.40;16.33;;;9.50;99.90;;;;;;5010672;28;20264;-58
2023/03/30 00:58:56;;;;;;;19.83;15.60;;;9.50;99.90;;;;;;5016618;28;20231;-56
2023/03/30 01:01:27;;;;;;;22.77;16.30;;;9.50;99.90;;;;;;5009000;28;20289;-59
2023/03/30 01:03:57;;;;;;;19.17;15.23;;;9.50;99.90;;;;;;5008460;28;20231;-57
2023/03/30 01:06:28;;;;;;;19.33;15.77;;;9.50;99.90;;;;;;4990321;28;20619;-59
2023/03/30 01:08:56;;;;;;;21.10;14.50;;;9.50;99.90;;;;;;5018339;28;20247;-55
2023/03/30 01:11:23;;;;;;;18.80;14.47;;;9.50;99.90;;;;;;5012532;28;20229;-59
2023/03/30 01:13:55;;;;;;;19.90;15.23;;;9.60;99.90;;;;;;5019844;28;20188;-54
2023/03/30 01:16:30;;;;;;;18.63;14.90;;;9.60;99.90;;;;;;5004201;28;20709;-61
2023/03/30 01:19:10;;;;;;;19.70;14.60;;;9.50;99.90;;;;;;5013131;28;20273;-55
2023/03/30 01:22:18;;;;;;;16.80;13.33;;;9.60;99.90;;;;;;4993482;28;21013;-56
2023/03/30 01:25:20;;;;;;;17.67;13.10;;;9.60;99.90;;;;;;5022474;28;20222;-58
2023/03/30 01:28:20;;;;;;;16.93;14.03;;;9.50;99.90;;;;;;5014136;28;20734;-58
2023/03/30 01:31:19;;;;;;;21.93;13.43;;;9.60;99.90;;;;;;5014034;28;20211;-55
2023/03/30 01:34:06;;;;;;;18.27;14.10;;;9.60;99.90;;;;;;5011504;28;20330;-55
2023/03/30 01:37:09;;;;;;;19.97;14.83;;;9.60;99.90;;;;;;4999664;28;20302;-53
2023/03/30 01:39:45;;;;;;;16.03;13.27;;;9.60;99.90;;;;;;5019794;28;20238;-59
2023/03/30 01:42:21;;;;;;;17.83;13.40;;;9.60;99.90;;;;;;5011033;28;20662;-58
2023/03/30 01:44:56;;;;;;;16.97;13.40;;;9.60;99.90;;;;;;5015628;28;20275;-57
2023/03/30 01:47:29;;;;;;;21.30;13.63;;;9.60;99.90;;;;;;5005982;28;20290;-59
2023/03/30 01:50:00;;;;;;;16.40;12.73;;;9.60;99.90;;;;;;5018584;28;20309;-58
2023/03/30 01:52:36;;;;;;;19.80;13.33;;;9.60;99.90;;;;;;5000111;28;20235;-58
2023/03/30 01:55:33;;;;;;;16.43;12.67;;;9.60;99.90;;;;;;5014679;28;20287;-58
2023/03/30 01:58:03;;;;;;;17.50;13.63;;;9.60;99.90;;;;;;5019701;28;20218;-55
2023/03/30 02:00:30;;;;;;;18.77;13.43;;;9.60;99.90;;;;;;5010157;28;20586;-59
2023/03/30 02:03:00;;;;;;;17.73;12.13;;;9.60;99.90;;;;;;5009694;28;20200;-57
2023/03/30 02:05:30;;;;;;;16.97;13.50;;;9.70;99.90;;;;;;5007206;28;20425;-59
2023/03/30 02:08:03;;;;;;;16.60;13.17;;;9.70;99.90;;;;;;5004319;28;20235;-55
2023/03/30 02:10:35;;;;;;;17.10;13.40;;;9.60;99.90;;;;;;5012748;28;20307;-59
2023/03/30 02:13:21;;;;;;;19.17;13.47;;;9.60;99.90;;;;;;5012844;28;20203;-59
2023/03/30 02:15:51;;;;;;;16.80;13.70;;;9.60;99.90;;;;;;5009238;28;21002;-58
2023/03/30 02:18:19;;;;;;;18.17;13.87;;;9.60;99.90;;;;;;5001187;28;20224;-58
2023/03/30 02:20:48;;;;;;;18.27;13.87;;;9.60;99.90;;;;;;5015061;28;20208;-57
2023/03/30 02:23:17;;;;;;;15.20;13.60;;;9.60;99.90;;;;;;5007394;28;20698;-58
2023/03/30 02:25:47;;;;;;;20.13;14.20;;;9.50;99.90;;;;;;5008972;28;20216;-54
2023/03/30 02:28:17;;;;;;;17.53;13.67;;;9.50;99.90;;;;;;5011760;28;20220;-57
2023/03/30 02:30:46;;;;;;;18.70;14.00;;;9.50;99.90;;;;;;5009372;28;20219;-59
2023/03/30 02:33:20;;;;;;;19.23;14.20;;;9.50;99.90;;;;;;5007723;28;20211;-59
2023/03/30 02:36:04;;;;;;;18.90;14.73;;;9.50;99.90;;;;;;5016846;28;20424;-57
2023/03/30 02:38:46;;;;;;;18.63;13.50;;;9.50;99.90;;;;;;4992631;28;20231;-59
2023/03/30 02:41:28;;;;;;;18.13;14.20;;;9.50;99.90;;;;;;5009399;28;20207;-55
2023/03/30 02:44:05;;;;;;;15.80;14.10;;;9.50;99.90;;;;;;5008656;28;20718;-59
2023/03/30 02:47:05;;;;;;;21.23;15.17;;;9.50;99.90;;;;;;5006119;28;20203;-60
2023/03/30 02:49:46;;;;;;;22.93;14.53;;;9.50;99.90;;;;;;4991287;28;20229;-57
2023/03/30 02:52:24;;;;;;;18.87;14.90;;;9.40;99.90;;;;;;5014793;28;20900;-58
2023/03/30 02:55:00;;;;;;;18.97;15.27;;;9.50;99.90;;;;;;5002367;28;20208;-59
2023/03/30 02:58:06;;;;;;;18.47;14.33;;;9.40;99.90;;;;;;5020605;28;20216;-59
2023/03/30 03:00:53;;;;;;;22.10;15.83;;;9.50;99.90;;;;;;5006771;28;20200;-59
2023/03/30 03:03:30;;;;;;;19.63;14.63;;;9.40;99.90;;;;;;5000639;28;20196;-58
2023/03/30 03:06:01;;;;;;;20.60;15.13;;;9.40;99.90;;;;;;5011380;28;20291;-57
2023/03/30 03:08:37;;;;;;;20.90;15.07;;;9.50;99.90;;;;;;5010162;28;20297;-59
2023/03/30 03:11:06;;;;;;;20.67;14.97;;;9.40;99.90;;;;;;5004884;28;20709;-60
2023/03/30 03:13:35;;;;;;;19.37;14.63;;;9.50;99.90;;;;;;5023222;28;20192;-56
2023/03/30 03:16:03;;;;;;;21.50;15.07;;;9.40;99.90;;;;;;5007242;28;20667;-60
2023/03/30 03:18:30;;;;;;;20.00;15.20;;;9.40;99.90;;;;;;5002753;28;20216;-61
2023/03/30 03:20:58;;;;;;;23.40;15.37;;;9.40;99.90;;;;;;5015374;28;20207;-61
2023/03/30 03:26:17;;;;;;;20.37;14.50;;;9.40;99.90;;;;;;4991316;28;20200;-60
2023/03/30 03:28:45;;;;;;;17.93;14.57;;;9.40;99.90;;;;;;5011548;28;20306;-59
2023/03/30 03:31:12;;;;;;;21.23;13.90;;;9.40;99.90;;;;;;5017662;28;20726;-58
2023/03/30 03:33:40;;;;;;;19.53;14.87;;;9.40;99.90;;;;;;5005024;28;20802;-60
2023/03/30 03:36:16;;;;;;;17.03;13.67;;;9.40;99.90;;;;;;5003850;28;20707;-57
2023/03/30 03:38:51;;;;;;;18.53;13.63;;;9.30;99.90;;;;;;5006625;28;20228;-58
2023/03/30 03:41:18;;;;;;;17.73;13.90;;;9.30;99.90;;;;;;4990392;28;20226;-58
2023/03/30 03:43:46;;;;;;;20.10;13.77;;;9.30;99.90;;;;;;5006550;28;20196;-57
2023/03/30 03:46:15;;;;;;;19.67;14.10;;;9.30;99.90;;;;;;5038765;28;20185;-58
2023/03/30 03:48:43;;;;;;;18.80;14.27;;;9.20;99.90;;;;;;5017224;28;20307;-59
2023/03/30 03:51:10;;;;;;;18.97;14.50;;;9.30;99.90;;;;;;5003665;28;20204;-59
2023/03/30 03:53:37;;;;;;;21.27;14.23;;;9.20;99.90;;;;;;5003464;28;20300;-58
2023/03/30 03:56:08;;;;;;;19.93;14.57;;;9.20;99.90;;;;;;4982896;28;20499;-59
2023/03/30 03:58:34;;;;;;;18.20;13.97;;;9.20;99.90;;;;;;5015146;28;20699;-59
2023/03/30 04:01:02;;;;;;;22.57;14.70;;;9.20;99.90;;;;;;5011136;28;20196;-58
2023/03/30 04:03:30;;;;;;;18.73;13.77;;;9.20;99.90;;;;;;5007707;28;20200;-58
2023/03/30 04:06:01;;;;;;;19.70;14.33;;;9.20;99.90;;;;;;5000330;28;20212;-57
2023/03/30 04:08:29;;;;;;;20.63;14.60;;;9.20;99.90;;;;;;5000076;28;20633;-59
2023/03/30 04:11:08;;;;;;;17.87;13.47;;;9.20;99.90;;;;;;4990035;28;20227;-56
2023/03/30 04:13:54;;;;;;;17.10;13.93;;;9.20;99.90;;;;;;5018829;28;20211;-56
2023/03/30 04:16:43;;;;;;;22.93;14.60;;;9.20;99.90;;;;;;5008610;28;20208;-59
2023/03/30 04:19:40;;;;;;;21.10;14.27;;;9.20;99.90;;;;;;5006317;28;20236;-57
2023/03/30 04:22:26;;;;;;;21.50;13.93;;;9.30;99.90;;;;;;5005622;28;20207;-58
2023/03/30 04:25:14;;;;;;;21.43;14.17;;;9.20;99.90;;;;;;5009210;28;20206;-60
2023/03/30 04:28:03;;;;;;;19.17;15.17;;;9.20;99.90;;;;;;4995902;28;20229;-56
2023/03/30 04:30:45;;;;;;;19.90;14.30;;;9.30;99.90;;;;;;5017084;28;20311;-59
2023/03/30 04:33:33;;;;;;;17.97;13.83;;;9.30;99.90;;;;;;5020332;28;20314;-57
2023/03/30 04:36:24;;;;;;;19.80;13.97;;;9.30;99.90;;;;;;5002896;28;20964;-60
2023/03/30 04:39:12;;;;;;;19.47;14.13;;;9.30;99.90;;;;;;5004166;28;20235;-58
2023/03/30 04:42:03;;;;;;;21.73;14.07;;;9.30;99.90;;;;;;5008028;28;20265;-57
2023/03/30 04:44:38;;;;;;;19.23;13.60;;;9.30;99.90;;;;;;5033997;28;20207;-57
2023/03/30 04:47:35;;;;;;;18.47;14.00;;;9.30;99.90;;;;;;5020204;28;20679;-56
2023/03/30 04:50:25;;;;;;;21.57;13.30;;;9.30;99.90;;;;;;5019745;28;20226;-58
2023/03/30 04:53:14;;;;;;;16.80;13.10;;;9.30;99.90;;;;;;4997860;28;20307;-58
2023/03/30 04:56:00;;;;;;;19.87;13.97;;;9.30;99.90;;;;;;5008502;28;20214;-56
2023/03/30 04:58:38;;;;;;;19.57;14.60;;;9.30;99.90;;;;;;5001194;28;20694;-58
2023/03/30 05:01:44;;;;;;;17.97;12.97;;;9.30;99.90;;;;;;5019824;28;20231;-59
2023/03/30 05:04:33;;;;;;;20.33;13.57;;;9.30;99.90;;;;;;5011668;28;20912;-57
2023/03/30 05:07:20;;;;;;;17.73;13.03;;;9.30;99.90;;;;;;5010588;28;20218;-57
2023/03/30 05:10:06;;;;;;;18.07;13.33;;;9.30;99.90;;;;;;5011224;28;20243;-58
2023/03/30 05:12:54;;;;;;;18.57;14.10;;;9.30;99.90;;;;;;5011666;28;20928;-55
2023/03/30 05:15:39;;;;;;;18.50;13.53;;;9.30;99.90;;;;;;5022482;28;20206;-60
2023/03/30 05:18:20;;;;;;;19.53;13.83;;;9.30;99.90;;;;;;5007631;28;20463;-58
2023/03/30 05:21:15;;;;;;;20.47;13.30;;;9.30;99.90;;;;;;5013638;28;20188;-58
2023/03/30 05:24:01;;;;;;;17.53;13.57;;;9.30;99.90;;;;;;5007497;28;20285;-56
2023/03/30 05:26:51;;;;;;;21.63;13.37;;;9.30;99.90;;;;;;5007142;28;20212;-56
2023/03/30 05:29:21;;;;;;;17.00;12.63;;;9.30;99.90;;;;;;4993805;28;21163;-58
2023/03/30 05:32:09;;;;;;;17.30;12.60;;;9.30;99.90;;;;;;5007420;28;20228;-58
2023/03/30 05:34:54;;;;;;;16.50;12.80;;;9.30;99.90;;;;;;5014681;28;20220;-57
2023/03/30 05:37:39;;;;;;;16.27;13.23;;;9.30;99.90;;;;;;5012037;28;20674;-57
2023/03/30 05:40:26;;;;;;;16.70;12.47;;;9.30;99.90;;;;;;5006200;28;20258;-56
2023/03/30 05:43:16;;;;;;;16.80;12.23;;;9.40;99.90;;;;;;5016226;28;20223;-57
2023/03/30 05:46:23;;;;;;;21.90;12.97;;;9.40;99.90;;;;;;4958502;28;20213;-57
2023/03/30 05:48:50;;;;;;;16.30;12.07;;;9.40;99.90;;;;;;4974495;28;20229;-57
2023/03/30 05:51:19;;;;;;;19.33;12.70;;;9.40;99.90;;;;;;4991060;28;20265;-58
2023/03/30 05:53:59;;;;;;;17.53;13.10;;;9.50;99.90;;;;;;5003370;28;20199;-57
2023/03/30 05:56:53;;;;;;;17.17;12.43;;;9.40;99.90;;;;;;5013991;28;20303;-57
2023/03/30 05:59:31;;;;;;;18.53;12.30;;;9.50;99.90;;;;;;5018930;28;20564;-56
2023/03/30 06:02:09;;;;;;;16.90;12.60;;;9.50;99.90;;;;;;4999585;28;20232;-59
2023/03/30 06:05:00;;;;;;;19.03;11.17;;;9.50;99.90;;;;;;5009031;28;20254;-57
2023/03/30 06:07:28;;;;;;;16.90;11.37;;;9.50;99.90;;;;;;5018296;28;20211;-59
2023/03/30 06:09:58;;;;;;;14.33;11.27;;;9.60;99.90;;;;;;5009340;28;20232;-58
2023/03/30 06:12:30;;;;;;;16.93;11.10;;;9.60;99.90;;;;;;5014650;28;20220;-57
2023/03/30 06:15:01;;;;;;;16.00;11.37;;;9.60;99.90;;;;;;5013963;28;20200;-56
2023/03/30 06:17:41;;;;;;;15.07;10.80;;;9.70;99.90;;;;;;4997570;28;20212;-59
2023/03/30 06:20:11;;;;;;;13.33;10.43;;;9.70;99.90;;;;;;5013930;28;22779;-58
2023/03/30 06:22:56;;;;;;;11.30;10.10;;;9.70;99.90;;;;;;5014935;28;20234;-57
2023/03/30 06:25:25;;;;;;;17.23;11.30;;;9.80;99.90;;;;;;5008865;28;20295;-59
2023/03/30 06:27:56;;;;;;;14.00;9.83;;;9.80;99.90;;;;;;5008807;28;20196;-56
2023/03/30 06:30:25;;;;;;;13.63;10.20;;;9.80;99.90;;;;;;5045406;28;20196;-58
2023/03/30 06:32:55;;;;;;;16.00;10.80;;;9.80;99.90;;;;;;5000712;28;20687;-55
2023/03/30 06:35:35;;;;;;;16.27;11.10;;;9.90;99.90;;;;;;5017674;28;20208;-56
2023/03/30 06:38:03;;;;;;;15.13;10.50;;;9.90;99.90;;;;;;5015800;28;20306;-58
2023/03/30 06:40:29;;;;;;;17.17;11.73;;;9.90;99.90;;;;;;5006094;28;20224;-59
2023/03/30 06:43:20;;;;;;;17.80;11.03;;;10.00;99.90;;;;;;5004158;28;20211;-57
2023/03/30 06:46:00;;;;;;;14.03;10.63;;;10.10;99.90;;;;;;5019028;28;20769;-59
2023/03/30 06:48:27;;;;;;;18.93;10.63;;;10.10;99.90;;;;;;4996357;28;20285;-56
2023/03/30 06:51:14;;;;;;;15.40;9.90;;;10.20;99.90;;;;;;5010928;28;20231;-58
2023/03/30 06:53:42;;;;;;;12.33;10.23;;;10.20;99.90;;;;;;4997540;28;20334;-59
2023/03/30 06:56:10;;;;;;;14.07;10.70;;;10.30;99.90;;;;;;5005324;28;20200;-59
2023/03/30 06:58:50;;;;;;;14.10;10.47;;;10.30;99.90;;;;;;5007323;28;20238;-59
2023/03/30 07:01:39;;;;;;;16.13;11.03;;;10.30;99.90;;;;;;5008231;28;20306;-59
2023/03/30 07:04:23;;;;;;;15.63;11.40;;;10.40;99.90;;;;;;4995577;28;20208;-57
2023/03/30 07:07:19;;;;;;;18.83;10.97;;;10.50;99.90;;;;;;5016553;28;20672;-57
2023/03/30 07:09:47;;;;;;;19.77;11.33;;;10.60;99.90;;;;;;5023450;28;20265;-56
2023/03/30 07:12:14;;;;;;;12.20;10.33;;;10.70;99.90;;;;;;5006303;28;20734;-58
2023/03/30 07:14:42;;;;;;;18.00;11.00;;;10.70;99.90;;;;;;5003090;28;20764;-56
2023/03/30 07:17:09;;;;;;;18.13;10.80;;;10.70;99.90;;;;;;5012985;28;20197;-57
2023/03/30 07:19:36;;;;;;;14.83;9.53;;;10.80;99.90;;;;;;4991871;28;20894;-57
2023/03/30 07:22:03;;;;;;;16.63;9.80;;;10.90;99.90;;;;;;5024334;28;20756;-54
2023/03/30 07:24:32;;;;;;;18.83;10.07;;;11.00;99.90;;;;;;5016071;28;20574;-59
2023/03/30 07:26:59;;;;;;;14.60;9.50;;;11.00;99.90;;;;;;5017655;28;20308;-54
2023/03/30 07:29:27;;;;;;;11.47;7.93;;;11.10;99.90;;;;;;4998044;28;20236;-57
2023/03/30 07:31:57;;;;;;;12.00;8.17;;;11.10;99.90;;;;;;5016854;28;20727;-56
2023/03/30 07:34:23;;;;;;;11.03;8.07;;;11.10;99.90;;;;;;5002549;28;20215;-59
2023/03/30 07:36:54;;;;;;;10.63;7.23;;;11.20;99.90;;;;;;5010052;28;20203;-57
2023/03/30 07:39:22;;;;;;;11.07;7.90;;;11.30;99.90;;;;;;5015301;28;20213;-58
2023/03/30 07:41:50;;;;;;;9.93;7.90;;;11.30;99.90;;;;;;5001289;28;20207;-55
2023/03/30 07:44:36;;;;;;;12.17;7.37;;;11.30;99.90;;;;;;4997378;28;20265;-57
2023/03/30 07:47:08;;;;;;;13.23;7.50;;;11.40;99.90;;;;;;5012549;28;20305;-57
2023/03/30 07:49:37;;;;;;;10.63;6.23;;;11.40;99.90;;;;;;5003805;28;20428;-55
2023/03/30 07:52:05;;;;;;;13.13;6.40;;;11.50;99.90;;;;;;4997801;28;20385;-58
2023/03/30 07:54:54;;;;;;;10.97;6.47;;;11.50;99.90;;;;;;5009444;28;20299;-59
2023/03/30 07:57:27;;;;;;;8.13;7.13;;;11.60;99.90;;;;;;5005844;28;20193;-58
2023/03/30 07:59:53;;;;;;;9.57;6.83;;;11.60;99.90;;;;;;5009527;28;20227;-60
2023/03/30 08:02:51;;;;;;;11.13;6.33;;;11.60;99.90;;;;;;5014464;28;20200;-55
2023/03/30 08:05:20;;;;;;;10.23;6.17;;;11.70;99.90;;;;;;5005783;28;20843;-59
2023/03/30 08:07:58;;;;;;;7.70;5.40;;;11.70;99.90;;;;;;5005644;28;20235;-57
2023/03/30 08:10:30;;;;;;;5.80;5.30;;;11.80;99.90;;;;;;5023691;28;20200;-54
2023/03/30 08:13:16;;;;;;;10.33;7.17;;;11.80;99.90;;;;;;5006273;28;20203;-56
2023/03/30 08:15:45;;;;;;;10.03;6.93;;;12.00;99.90;;;;;;5019756;28;20587;-59
2023/03/30 08:18:33;;;;;;;12.73;6.17;;;12.10;99.90;;;;;;5005300;28;21156;-56
2023/03/30 08:21:00;;;;;;;6.80;5.00;;;12.20;99.90;;;;;;5017597;28;20220;-56
2023/03/30 08:23:28;;;;;;;7.47;4.77;;;12.30;99.90;;;;;;4994506;28;20263;-56
2023/03/30 08:25:56;;;;;;;7.73;4.47;;;12.30;99.90;;;;;;5020477;28;20262;-56
2023/03/30 08:28:23;;;;;;;7.70;5.63;;;12.50;99.90;;;;;;5002417;28;20230;-58
2023/03/30 08:30:50;;;;;;;5.90;5.20;;;12.60;99.90;;;;;;4991638;28;20207;-57
2023/03/30 08:33:17;;;;;;;11.37;4.70;;;12.70;99.90;;;;;;5018837;28;20185;-58
2023/03/30 08:36:04;;;;;;;6.57;4.30;;;12.70;99.90;;;;;;5002876;28;20211;-53
2023/03/30 08:38:31;;;;;;;6.40;4.80;;;12.80;99.90;;;;;;4999680;28;20220;-57
2023/03/30 08:40:58;;;;;;;12.83;4.93;;;12.80;99.90;;;;;;5007873;28;20192;-56
2023/03/30 08:43:43;;;;;;;8.83;5.47;;;12.90;99.90;;;;;;5004386;28;20209;-59
2023/03/30 08:46:15;;;;;;;8.37;4.77;;;13.00;99.90;;;;;;5002767;28;20196;-55
2023/03/30 08:48:43;;;;;;;8.90;5.27;;;13.00;99.90;;;;;;5016321;28;20243;-58
2023/03/30 08:51:20;;;;;;;9.07;5.83;;;13.00;99.90;;;;;;5006681;28;20208;-58
2023/03/30 08:53:50;;;;;;;8.93;4.70;;;13.10;99.90;;;;;;4981052;28;20623;-59
2023/03/30 08:56:21;;;;;;;5.90;4.17;;;13.10;99.90;;;;;;5020334;28;20243;-59
2023/03/30 08:58:56;;;;;;;8.20;4.17;;;13.10;99.90;;;;;;5000248;28;20702;-59
2023/03/30 09:01:29;;;;;;;10.97;5.03;;;13.00;99.90;;;;;;5008336;28;20294;-57
2023/03/30 09:04:26;;;;;;;6.20;4.27;;;13.10;99.90;;;;;;5008015;28;20208;-58
2023/03/30 09:07:01;;;;;;;7.60;4.40;;;13.20;99.90;;;;;;5000898;28;20266;-59
2023/03/30 09:09:30;;;;;;;7.20;4.10;;;13.30;99.90;;;;;;4985700;28;20232;-56
2023/03/30 09:12:04;;;;;;;12.90;4.67;;;13.30;99.90;;;;;;5013705;28;20315;-58
2023/03/30 09:14:37;;;;;;;8.03;4.30;;;13.50;99.90;;;;;;4999539;28;20216;-57
2023/03/30 09:17:08;;;;;;;6.13;4.53;;;13.60;99.90;;;;;;4946198;28;20205;-59
2023/03/30 09:19:45;;;;;;;7.07;3.93;;;13.80;99.90;;;;;;5013369;28;20220;-59
2023/03/30 09:22:15;;;;;;;4.50;3.63;;;14.00;99.90;;;;;;5006359;28;20208;-57
2023/03/30 09:24:42;;;;;;;4.33;3.30;;;14.10;99.90;;;;;;5006389;28;20199;-59
2023/03/30 09:27:15;;;;;;;4.93;4.17;;;14.20;99.90;;;;;;5004405;28;20196;-58
2023/03/30 09:29:47;;;;;;;6.93;3.60;;;14.30;99.90;;;;;;5005870;28;20315;-59
2023/03/30 09:32:18;;;;;;;7.00;3.77;;;14.40;99.90;;;;;;5001366;28;23138;-57
2023/03/30 09:34:47;;;;;;;5.63;3.07;;;14.50;99.90;;;;;;5019470;28;20189;-59
2023/03/30 09:37:17;;;;;;;5.07;3.23;;;14.50;99.90;;;;;;5022329;28;20202;-59
2023/03/30 09:39:45;;;;;;;7.47;3.20;;;14.50;99.90;;;;;;5005287;28;20243;-59
2023/03/30 09:42:26;;;;;;;7.27;3.60;;;14.40;99.90;;;;;;5005962;28;20195;-59
2023/03/30 09:44:58;;;;;;;4.73;3.27;;;14.40;99.90;;;;;;5001663;28;20206;-58
2023/03/30 09:47:26;;;;;;;5.13;3.17;;;14.40;99.90;;;;;;5019802;28;20196;-58
2023/03/30 09:49:58;;;;;;;5.53;3.53;;;14.30;99.90;;;;;;5003015;28;20308;-59
2023/03/30 09:52:28;;;;;;;4.87;3.53;;;14.20;99.90;;;;;;5017914;28;20216;-57
2023/03/30 09:54:56;;;;;;;5.93;3.93;;;14.20;99.90;;;;;;5007970;28;20200;-58
2023/03/30 09:57:26;;;;;;;4.50;3.47;;;14.10;99.90;;;;;;5002955;28;20204;-57
2023/03/30 09:59:54;;;;;;;4.90;3.77;;;13.90;99.90;;;;;;5010985;28;20216;-59
2023/03/30 10:02:22;;;;;;;4.50;4.10;;;13.90;99.90;;;;;;5019917;28;20203;-57
2023/03/30 10:05:01;;;;;;;5.47;4.03;;;13.70;99.90;;;;;;5007517;28;20199;-59
2023/03/30 10:07:32;;;;;;;9.20;4.50;;;13.70;99.90;;;;;;5015226;28;20209;-57
2023/03/30 10:10:01;;;;;;;5.50;3.80;;;13.70;99.90;;;;;;5005379;28;20294;-59
2023/03/30 10:12:29;;;;;;;6.13;4.20;;;13.80;99.90;;;;;;5000801;28;20223;-59
2023/03/30 10:15:00;;;;;;;5.43;4.40;;;13.90;99.90;;;;;;5001596;28;20922;-58
2023/03/30 10:17:28;;;;;;;6.47;3.97;;;14.00;99.90;;;;;;5018330;28;20706;-59
2023/03/30 10:20:15;;;;;;;8.80;4.03;;;14.10;99.90;;;;;;4995920;28;20240;-59
2023/03/30 10:22:52;;;;;;;10.03;4.30;;;14.20;99.90;;;;;;5020965;28;20267;-59
2023/03/30 10:25:22;;;;;;;6.97;3.10;;;14.20;99.90;;;;;;5016108;28;20253;-57
2023/03/30 10:27:52;;;;;;;4.47;2.70;;;14.20;99.90;;;;;;4998698;28;20270;-58
2023/03/30 10:30:23;;;;;;;6.40;3.23;;;14.20;99.90;;;;;;5012914;28;20597;-58
2023/03/30 10:32:52;;;;;;;5.20;2.73;;;14.40;99.90;;;;;;4991989;28;20721;-56
2023/03/30 10:35:21;;;;;;;4.90;2.43;;;14.50;99.90;;;;;;5007967;28;20200;-59
2023/03/30 10:37:52;;;;;;;4.77;2.50;;;14.60;99.90;;;;;;5012786;28;20232;-57
2023/03/30 10:40:21;;;;;;;5.53;1.97;;;14.70;99.90;;;;;;5007170;28;20290;-58
2023/03/30 10:42:52;;;;;;;4.67;2.43;;;14.90;99.90;;;;;;4988468;28;20214;-57
2023/03/30 10:45:22;;;;;;;5.10;2.87;;;15.00;99.90;;;;;;5013230;28;20212;-56
2023/03/30 10:48:06;;;;;;;3.70;2.07;;;15.10;99.90;;;;;;5004811;28;20208;-57
2023/03/30 10:50:40;;;;;;;5.00;2.27;;;15.10;99.90;;;;;;5007051;28;20781;-57
2023/03/30 10:53:25;;;;;;;6.90;3.27;;;15.20;99.90;;;;;;5014924;28;20248;-58
2023/03/30 10:56:00;;;;;;;2.57;1.50;;;15.20;99.90;;;;;;5008182;28;20224;-58
2023/03/30 10:58:41;;;;;;;3.40;1.57;;;15.10;99.90;;;;;;4987610;28;20303;-58
2023/03/30 11:01:14;;;;;;;3.80;1.60;;;15.00;99.90;;;;;;5014330;28;20212;-58
2023/03/30 11:03:46;;;;;;;2.37;1.40;;;15.00;99.90;;;;;;5034356;28;20192;-58
2023/03/30 11:06:19;;;;;;;5.10;2.00;;;14.90;99.90;;;;;;5004141;28;20261;-58
2023/03/30 11:08:50;;;;;;;4.80;2.13;;;14.90;99.90;;;;;;5016758;28;20216;-57
2023/03/30 11:11:21;;;;;;;3.17;1.67;;;14.90;99.90;;;;;;5008423;28;20622;-60
2023/03/30 11:13:53;;;;;;;3.03;1.50;;;15.00;99.90;;;;;;4993403;28;20239;-57
2023/03/30 11:16:23;;;;;;;3.17;1.60;;;15.10;99.90;;;;;;5016332;28;20300;-57
2023/03/30 11:18:54;;;;;;;4.07;1.50;;;15.20;99.90;;;;;;5002264;28;20239;-56
2023/03/30 11:21:28;;;;;;;2.63;1.57;;;15.30;99.90;;;;;;5009470;28;20206;-58
2023/03/30 11:24:00;;;;;;;2.37;1.43;;;15.30;99.90;;;;;;5015558;28;20285;-56
2023/03/30 11:26:35;;;;;;;5.13;2.00;;;15.30;99.90;;;;;;5016644;28;20200;-59
2023/03/30 11:29:14;;;;;;;4.83;1.83;;;15.50;99.90;;;;;;4994413;28;20231;-56
2023/03/30 11:31:48;;;;;;;6.23;1.50;;;15.80;99.90;;;;;;5011676;28;20223;-60
2023/03/30 11:34:27;;;;;;;2.77;0.73;;;15.80;99.90;;;;;;5002183;28;20196;-59
2023/03/30 11:37:00;;;;;;;4.13;1.00;;;15.70;99.90;;;;;;5009263;28;20209;-54
2023/03/30 11:39:30;;;;;;;3.10;1.40;;;15.60;99.90;;;;;;5010561;28;20295;-58
2023/03/30 11:42:04;;;;;;;3.27;1.20;;;15.50;99.90;;;;;;4998462;28;20204;-53
2023/03/30 11:44:31;;;;;;;6.87;1.30;;;15.50;99.90;;;;;;4990918;28;20244;-58
2023/03/30 11:47:12;;;;;;;5.03;1.03;;;15.50;99.90;;;;;;5013677;28;20192;-60
2023/03/30 11:49:56;;;;;;;3.50;1.17;;;15.40;99.90;;;;;;4997534;28;20242;-57
2023/03/30 11:52:31;;;;;;;7.30;1.43;;;15.40;99.90;;;;;;5004008;28;20237;-57
2023/03/30 11:55:24;;;;;;;4.50;1.83;;;15.40;99.90;;;;;;5006479;28;20203;-57
2023/03/30 11:58:04;;;;;;;4.17;1.00;;;15.40;99.90;;;;;;5002928;28;20633;-58
2023/03/30 12:00:43;;;;;;;4.37;1.33;;;15.30;99.90;;;;;;5017713;28;20894;-56
2023/03/30 12:03:21;;;;;;;5.87;1.60;;;15.30;99.90;;;;;;5013990;28;20202;-59
2023/03/30 12:05:54;;;;;;;5.87;1.73;;;15.30;99.90;;;;;;5006606;28;20888;-55
2023/03/30 12:08:43;;;;;;;6.63;1.40;;;15.10;99.90;;;;;;5003234;28;20993;-59
2023/03/30 12:11:21;;;;;;;7.60;1.60;;;14.90;99.90;;;;;;5012890;28;20259;-59
2023/03/30 12:13:48;;;;;;;3.87;1.10;;;14.40;99.90;;;;;;4995936;28;20228;-56
2023/03/30 12:16:19;;;;;;;5.87;1.70;;;14.10;99.90;;;;;;5015505;28;20199;-52
2023/03/30 12:18:54;;;;;;;6.13;1.50;;;13.80;99.90;;;;;;5013094;28;20235;-63
2023/03/30 12:21:30;;;;;;;5.87;1.87;;;13.40;99.90;;;;;;5002224;28;21024;-55
2023/03/30 12:24:10;;;;;;;4.07;1.67;;;13.10;99.90;;;;;;5005241;28;20667;-59
2023/03/30 12:26:39;;;;;;;5.77;1.63;;;12.90;99.90;;;;;;5005443;28;20223;-53
2023/03/30 12:29:11;;;;;;;6.30;2.00;;;12.80;99.90;;;;;;4990971;28;20260;-52
2023/03/30 12:31:50;;;;;;;6.03;1.47;;;12.70;99.90;;;;;;5015106;28;20191;-54
2023/03/30 12:34:18;;;;;;;7.13;2.17;;;12.70;99.90;;;;;;5014507;28;20212;-57
2023/03/30 12:36:48;;;;;;;5.67;1.90;;;12.60;99.90;;;;;;5000444;28;20641;-56
2023/03/30 12:39:25;;;;;;;10.03;2.13;;;12.60;99.90;;;;;;5003891;28;20334;-51
2023/03/30 12:42:03;;;;;;;7.03;1.80;;;12.70;99.90;;;;;;5008786;28;20208;-61
2023/03/30 12:44:42;;;;;;;9.57;2.23;;;12.70;99.90;;;;;;5013518;28;20200;-52
2023/03/30 12:47:24;;;;;;;6.33;2.10;;;12.80;99.90;;;;;;4991572;28;20959;-54
2023/03/30 12:50:03;;;;;;;14.50;3.13;;;13.00;99.90;;;;;;5015992;28;20741;-61
2023/03/30 12:52:42;;;;;;;8.10;2.27;;;13.20;99.90;;;;;;5007349;28;20211;-54
2023/03/30 12:55:39;;;;;;;9.77;2.70;;;13.30;99.90;;;;;;5000497;28;20825;-54
2023/03/30 12:58:45;;;;;;;7.27;2.37;;;13.60;99.90;;;;;;4992207;28;20236;-53
2023/03/30 13:01:39;;;;;;;6.80;2.37;;;13.80;99.90;;;;;;4996127;28;21196;-53
2023/03/30 13:04:08;;;;;;;9.03;2.17;;;13.90;99.90;;;;;;5010881;28;20275;-55
2023/03/30 13:06:39;;;;;;;9.33;2.80;;;14.10;99.90;;;;;;5015600;28;20196;-57
2023/03/30 13:09:35;;;;;;;4.97;2.03;;;14.30;99.90;;;;;;5007057;28;20947;-55
2023/03/30 13:12:26;;;;;;;5.60;1.67;;;14.50;99.90;;;;;;5005478;28;20224;-55
2023/03/30 13:15:03;;;;;;;9.23;2.03;;;14.50;99.90;;;;;;5002011;28;20326;-58
2023/03/30 13:17:50;;;;;;;4.90;2.17;;;14.60;99.90;;;;;;5001139;28;20413;-56
2023/03/30 13:20:19;;;;;;;7.33;1.57;;;14.60;99.90;;;;;;5015087;28;20302;-57
2023/03/30 13:22:59;;;;;;;5.83;2.00;;;14.50;99.90;;;;;;5017742;28;20286;-58
2023/03/30 13:25:36;;;;;;;4.43;1.57;;;14.40;99.90;;;;;;5015788;28;20206;-56
2023/03/30 13:28:43;;;;;;;7.73;2.27;;;14.30;99.90;;;;;;5002042;28;20227;-56